sensor_id;sensor_type;location;lat;lon;timestamp;temperature;humidity
25918;DHT22;13899;51.174;4.456;2023-03-26T00:01:22;9.00;99.90
25918;DHT22;13899;51.174;4.456;2023-03-26T00:03:49;9.00;99.90
25918;DHT22;13899;51.174;4.456;2023-03-26T00:06:25;8.90;99.90
25918;DHT22;13899;51.174;4.456;2023-03-26T00:08:54;8.90;99.90
25918;DHT22;13899;51.174;4.456;2023-03-26T00:11:21;9.20;99.90
25918;DHT22;13899;51.174;4.456;2023-03-26T00:13:47;9.20;99.90
25918;DHT22;13899;51.174;4.456;2023-03-26T00:16:15;9.20;99.90
25918;DHT22;13899;51.174;4.456;2023-03-26T00:18:41;9.10;99.90
25918;DHT22;13899;51.174;4.456;2023-03-26T00:21:14;9.20;99.90
25918;DHT22;13899;51.174;4.456;2023-03-26T00:23:40;9.20;99.90
25918;DHT22;13899;51.174;4.456;2023-03-26T00:26:07;9.10;99.90
25918;DHT22;13899;51.174;4.456;2023-03-26T00:28:40;9.10;99.90
25918;DHT22;13899;51.174;4.456;2023-03-26T00:31:09;9.10;99.90
25918;DHT22;13899;51.174;4.456;2023-03-26T00:33:37;9.10;99.90
25918;DHT22;13899;51.174;4.456;2023-03-26T00:36:08;9.50;99.90
25918;DHT22;13899;51.174;4.456;2023-03-26T00:38:39;9.30;99.90
25918;DHT22;13899;51.174;4.456;2023-03-26T00:41:07;9.30;99.90
25918;DHT22;13899;51.174;4.456;2023-03-26T00:43:41;9.50;99.90
25918;DHT22;13899;51.174;4.456;2023-03-26T00:46:07;9.30;99.90
25918;DHT22;13899;51.174;4.456;2023-03-26T00:48:33;9.30;99.90
25918;DHT22;13899;51.174;4.456;2023-03-26T00:50:59;9.30;99.90
25918;DHT22;13899;51.174;4.456;2023-03-26T00:53:25;9.40;99.90
25918;DHT22;13899;51.174;4.456;2023-03-26T00:55:51;9.40;99.90
25918;DHT22;13899;51.174;4.456;2023-03-26T00:58:17;9.40;99.90
25918;DHT22;13899;51.174;4.456;2023-03-26T01:00:57;9.50;99.90
25918;DHT22;13899;51.174;4.456;2023-03-26T01:03:26;9.60;99.90
25918;DHT22;13899;51.174;4.456;2023-03-26T01:06:06;9.70;99.90
25918;DHT22;13899;51.174;4.456;2023-03-26T01:08:40;9.50;99.90
25918;DHT22;13899;51.174;4.456;2023-03-26T01:13:44;9.50;99.90
25918;DHT22;13899;51.174;4.456;2023-03-26T01:18:52;9.40;99.90
25918;DHT22;13899;51.174;4.456;2023-03-26T01:21:20;9.30;99.90
25918;DHT22;13899;51.174;4.456;2023-03-26T01:24:01;9.10;99.90
25918;DHT22;13899;51.174;4.456;2023-03-26T01:27:15;8.90;99.90
25918;DHT22;13899;51.174;4.456;2023-03-26T01:37:45;8.80;99.90
25918;DHT22;13899;51.174;4.456;2023-03-26T01:46:18;8.90;99.90
25918;DHT22;13899;51.174;4.456;2023-03-26T01:49:01;8.90;99.90
25918;DHT22;13899;51.174;4.456;2023-03-26T01:51:33;8.90;99.90
25918;DHT22;13899;51.174;4.456;2023-03-26T02:14:50;10.40;99.90
25918;DHT22;13899;51.174;4.456;2023-03-26T02:17:22;10.50;99.90
25918;DHT22;13899;51.174;4.456;2023-03-26T02:20:12;10.50;99.90
25918;DHT22;13899;51.174;4.456;2023-03-26T02:28:17;11.30;99.90
25918;DHT22;13899;51.174;4.456;2023-03-26T02:30:43;11.20;99.90
25918;DHT22;13899;51.174;4.456;2023-03-26T02:33:10;11.40;99.90
25918;DHT22;13899;51.174;4.456;2023-03-26T02:35:40;11.20;99.90
25918;DHT22;13899;51.174;4.456;2023-03-26T02:38:11;11.30;99.90
25918;DHT22;13899;51.174;4.456;2023-03-26T02:40:39;11.30;99.90
25918;DHT22;13899;51.174;4.456;2023-03-26T02:43:07;11.40;99.90
25918;DHT22;13899;51.174;4.456;2023-03-26T02:45:36;11.70;99.90
25918;DHT22;13899;51.174;4.456;2023-03-26T02:48:11;11.90;99.90
25918;DHT22;13899;51.174;4.456;2023-03-26T02:50:45;11.90;99.90
25918;DHT22;13899;51.174;4.456;2023-03-26T02:53:23;12.10;99.90
25918;DHT22;13899;51.174;4.456;2023-03-26T02:56:08;12.20;99.90
25918;DHT22;13899;51.174;4.456;2023-03-26T02:58:39;12.10;99.90
25918;DHT22;13899;51.174;4.456;2023-03-26T03:01:05;12.00;99.90
25918;DHT22;13899;51.174;4.456;2023-03-26T03:03:31;11.90;99.90
25918;DHT22;13899;51.174;4.456;2023-03-26T03:05:57;11.90;99.90
25918;DHT22;13899;51.174;4.456;2023-03-26T03:08:25;11.90;99.90
25918;DHT22;13899;51.174;4.456;2023-03-26T03:10:57;12.00;99.90
25918;DHT22;13899;51.174;4.456;2023-03-26T03:13:23;11.60;99.90
25918;DHT22;13899;51.174;4.456;2023-03-26T03:15:49;11.60;99.90
25918;DHT22;13899;51.174;4.456;2023-03-26T03:18:23;11.50;99.90
25918;DHT22;13899;51.174;4.456;2023-03-26T03:20:49;11.10;99.90
25918;DHT22;13899;51.174;4.456;2023-03-26T03:23:15;10.90;99.90
25918;DHT22;13899;51.174;4.456;2023-03-26T03:25:41;11.00;99.90
25918;DHT22;13899;51.174;4.456;2023-03-26T03:28:11;10.90;99.90
25918;DHT22;13899;51.174;4.456;2023-03-26T03:30:38;10.90;99.90
25918;DHT22;13899;51.174;4.456;2023-03-26T03:33:04;11.10;99.90
25918;DHT22;13899;51.174;4.456;2023-03-26T03:35:30;11.00;99.90
25918;DHT22;13899;51.174;4.456;2023-03-26T03:37:57;11.20;99.90
25918;DHT22;13899;51.174;4.456;2023-03-26T03:40:26;11.10;99.90
25918;DHT22;13899;51.174;4.456;2023-03-26T03:42:52;11.00;99.90
25918;DHT22;13899;51.174;4.456;2023-03-26T03:45:18;10.30;99.90
25918;DHT22;13899;51.174;4.456;2023-03-26T03:47:49;10.60;99.90
25918;DHT22;13899;51.174;4.456;2023-03-26T03:50:16;10.40;99.90
25918;DHT22;13899;51.174;4.456;2023-03-26T03:52:44;10.30;99.90
25918;DHT22;13899;51.174;4.456;2023-03-26T03:55:10;10.20;99.90
25918;DHT22;13899;51.174;4.456;2023-03-26T04:08:35;9.60;99.90
25918;DHT22;13899;51.174;4.456;2023-03-26T04:11:06;9.90;99.90
25918;DHT22;13899;51.174;4.456;2023-03-26T04:20:57;10.50;99.90
25918;DHT22;13899;51.174;4.456;2023-03-26T05:05:20;10.90;99.90
25918;DHT22;13899;51.174;4.456;2023-03-26T05:07:49;11.40;99.90
25918;DHT22;13899;51.174;4.456;2023-03-26T05:10:17;11.00;99.90
25918;DHT22;13899;51.174;4.456;2023-03-26T05:12:52;11.00;99.90
25918;DHT22;13899;51.174;4.456;2023-03-26T05:18:00;10.30;99.90
25918;DHT22;13899;51.174;4.456;2023-03-26T05:20:48;10.30;99.90
25918;DHT22;13899;51.174;4.456;2023-03-26T05:23:23;10.40;99.90
25918;DHT22;13899;51.174;4.456;2023-03-26T05:26:18;10.70;99.90
25918;DHT22;13899;51.174;4.456;2023-03-26T05:29:21;10.10;99.90
25918;DHT22;13899;51.174;4.456;2023-03-26T05:32:32;9.80;99.90
25918;DHT22;13899;51.174;4.456;2023-03-26T05:35:06;10.20;99.90
25918;DHT22;13899;51.174;4.456;2023-03-26T05:38:01;10.50;99.90
25918;DHT22;13899;51.174;4.456;2023-03-26T05:40:44;10.70;99.90
25918;DHT22;13899;51.174;4.456;2023-03-26T05:43:11;10.50;99.90
25918;DHT22;13899;51.174;4.456;2023-03-26T05:45:37;10.70;99.90
25918;DHT22;13899;51.174;4.456;2023-03-26T05:48:03;10.80;99.90
25918;DHT22;13899;51.174;4.456;2023-03-26T05:50:29;10.80;99.90
25918;DHT22;13899;51.174;4.456;2023-03-26T05:52:54;10.50;99.90
25918;DHT22;13899;51.174;4.456;2023-03-26T05:55:21;10.30;99.90
25918;DHT22;13899;51.174;4.456;2023-03-26T05:57:47;10.30;99.90
25918;DHT22;13899;51.174;4.456;2023-03-26T06:00:18;10.50;99.90
25918;DHT22;13899;51.174;4.456;2023-03-26T06:02:50;10.70;99.90
25918;DHT22;13899;51.174;4.456;2023-03-26T06:05:21;10.70;99.90
25918;DHT22;13899;51.174;4.456;2023-03-26T06:08:03;10.70;99.90
25918;DHT22;13899;51.174;4.456;2023-03-26T06:15:50;10.80;99.90
25918;DHT22;13899;51.174;4.456;2023-03-26T06:18:16;10.90;99.90
25918;DHT22;13899;51.174;4.456;2023-03-26T06:20:45;10.80;99.90
25918;DHT22;13899;51.174;4.456;2023-03-26T06:23:11;10.80;99.90
25918;DHT22;13899;51.174;4.456;2023-03-26T06:25:37;10.60;99.90
25918;DHT22;13899;51.174;4.456;2023-03-26T06:28:07;10.90;99.90
25918;DHT22;13899;51.174;4.456;2023-03-26T06:33:53;10.20;99.90
25918;DHT22;13899;51.174;4.456;2023-03-26T06:36:20;9.90;99.90
25918;DHT22;13899;51.174;4.456;2023-03-26T06:38:55;9.40;99.90
25918;DHT22;13899;51.174;4.456;2023-03-26T06:41:21;9.30;99.90
25918;DHT22;13899;51.174;4.456;2023-03-26T06:43:54;9.30;99.90
25918;DHT22;13899;51.174;4.456;2023-03-26T06:46:24;9.50;99.90
25918;DHT22;13899;51.174;4.456;2023-03-26T06:49:13;9.40;99.90
25918;DHT22;13899;51.174;4.456;2023-03-26T06:51:48;9.30;99.90
25918;DHT22;13899;51.174;4.456;2023-03-26T06:54:16;9.40;99.90
25918;DHT22;13899;51.174;4.456;2023-03-26T06:56:45;9.40;99.90
25918;DHT22;13899;51.174;4.456;2023-03-26T06:59:10;9.00;99.90
25918;DHT22;13899;51.174;4.456;2023-03-26T07:01:44;8.90;99.90
25918;DHT22;13899;51.174;4.456;2023-03-26T07:04:09;9.00;99.90
25918;DHT22;13899;51.174;4.456;2023-03-26T07:06:50;8.90;99.90
25918;DHT22;13899;51.174;4.456;2023-03-26T07:09:17;9.00;99.90
25918;DHT22;13899;51.174;4.456;2023-03-26T07:11:43;9.20;99.90
25918;DHT22;13899;51.174;4.456;2023-03-26T07:14:13;9.20;99.90
25918;DHT22;13899;51.174;4.456;2023-03-26T07:16:39;8.90;99.90
25918;DHT22;13899;51.174;4.456;2023-03-26T07:19:06;8.90;99.90
25918;DHT22;13899;51.174;4.456;2023-03-26T07:21:34;9.00;99.90
25918;DHT22;13899;51.174;4.456;2023-03-26T07:24:03;8.90;99.90
25918;DHT22;13899;51.174;4.456;2023-03-26T07:31:59;9.40;99.90
25918;DHT22;13899;51.174;4.456;2023-03-26T07:34:52;9.70;99.90
25918;DHT22;13899;51.174;4.456;2023-03-26T07:40:07;10.40;99.90
25918;DHT22;13899;51.174;4.456;2023-03-26T07:45:41;10.30;99.90
25918;DHT22;13899;51.174;4.456;2023-03-26T07:48:16;9.80;99.90
25918;DHT22;13899;51.174;4.456;2023-03-26T07:50:43;10.10;99.90
25918;DHT22;13899;51.174;4.456;2023-03-26T07:53:09;10.30;99.90
25918;DHT22;13899;51.174;4.456;2023-03-26T07:58:51;11.00;99.90
25918;DHT22;13899;51.174;4.456;2023-03-26T08:06:35;10.80;99.90
25918;DHT22;13899;51.174;4.456;2023-03-26T08:09:52;10.40;99.90
25918;DHT22;13899;51.174;4.456;2023-03-26T08:12:06;10.60;99.90
25918;DHT22;13899;51.174;4.456;2023-03-26T08:17:10;10.80;99.90
25918;DHT22;13899;51.174;4.456;2023-03-26T08:22:30;11.00;99.90
25918;DHT22;13899;51.174;4.456;2023-03-26T08:28:02;10.80;99.90
25918;DHT22;13899;51.174;4.456;2023-03-26T08:30:29;10.40;99.90
25918;DHT22;13899;51.174;4.456;2023-03-26T08:33:11;10.50;99.90
25918;DHT22;13899;51.174;4.456;2023-03-26T08:35:38;10.60;99.90
25918;DHT22;13899;51.174;4.456;2023-03-26T08:38:17;10.70;99.90
25918;DHT22;13899;51.174;4.456;2023-03-26T09:21:42;10.20;99.90
25918;DHT22;13899;51.174;4.456;2023-03-26T09:24:49;10.10;99.90
25918;DHT22;13899;51.174;4.456;2023-03-26T09:30:37;10.60;99.90
25918;DHT22;13899;51.174;4.456;2023-03-26T09:36:17;10.70;99.90
25918;DHT22;13899;51.174;4.456;2023-03-26T09:39:05;10.50;99.90
25918;DHT22;13899;51.174;4.456;2023-03-26T09:49:49;10.30;99.90
25918;DHT22;13899;51.174;4.456;2023-03-26T09:55:20;10.40;99.90
25918;DHT22;13899;51.174;4.456;2023-03-26T10:01:06;11.30;99.90
25918;DHT22;13899;51.174;4.456;2023-03-26T10:04:00;11.50;99.90
25918;DHT22;13899;51.174;4.456;2023-03-26T10:09:37;11.70;99.90
25918;DHT22;13899;51.174;4.456;2023-03-26T10:14:45;11.80;99.90
25918;DHT22;13899;51.174;4.456;2023-03-26T10:20:18;11.50;99.90
25918;DHT22;13899;51.174;4.456;2023-03-26T10:34:36;11.70;99.90
25918;DHT22;13899;51.174;4.456;2023-03-26T10:37:13;11.90;99.90
25918;DHT22;13899;51.174;4.456;2023-03-26T10:43:00;11.30;99.90
25918;DHT22;13899;51.174;4.456;2023-03-26T10:48:57;12.10;99.90
25918;DHT22;13899;51.174;4.456;2023-03-26T10:51:48;12.20;99.90
25918;DHT22;13899;51.174;4.456;2023-03-26T10:54:29;12.10;99.90
25918;DHT22;13899;51.174;4.456;2023-03-26T10:57:08;11.80;99.90
25918;DHT22;13899;51.174;4.456;2023-03-26T10:59:37;11.90;99.90
25918;DHT22;13899;51.174;4.456;2023-03-26T11:02:26;11.90;99.90
25918;DHT22;13899;51.174;4.456;2023-03-26T11:05:26;12.10;99.90
25918;DHT22;13899;51.174;4.456;2023-03-26T11:08:06;12.50;99.90
25918;DHT22;13899;51.174;4.456;2023-03-26T11:15:54;13.20;99.90
25918;DHT22;13899;51.174;4.456;2023-03-26T11:18:40;13.00;99.90
25918;DHT22;13899;51.174;4.456;2023-03-26T11:21:16;12.60;99.90
25918;DHT22;13899;51.174;4.456;2023-03-26T11:24:24;12.60;99.90
25918;DHT22;13899;51.174;4.456;2023-03-26T11:32:11;12.50;99.90
25918;DHT22;13899;51.174;4.456;2023-03-26T11:34:40;12.20;99.90
25918;DHT22;13899;51.174;4.456;2023-03-26T11:37:22;11.80;99.90
25918;DHT22;13899;51.174;4.456;2023-03-26T11:39:53;12.00;99.90
25918;DHT22;13899;51.174;4.456;2023-03-26T11:42:22;12.10;99.90
25918;DHT22;13899;51.174;4.456;2023-03-26T11:47:17;12.40;99.90
25918;DHT22;13899;51.174;4.456;2023-03-26T11:49:46;12.60;99.90
25918;DHT22;13899;51.174;4.456;2023-03-26T11:52:15;12.40;99.90
25918;DHT22;13899;51.174;4.456;2023-03-26T11:54:41;12.00;99.90
25918;DHT22;13899;51.174;4.456;2023-03-26T11:57:16;12.70;99.90
25918;DHT22;13899;51.174;4.456;2023-03-26T11:59:50;13.00;99.90
25918;DHT22;13899;51.174;4.456;2023-03-26T12:02:37;13.60;99.90
25918;DHT22;13899;51.174;4.456;2023-03-26T12:05:23;14.00;99.90
25918;DHT22;13899;51.174;4.456;2023-03-26T12:07:59;13.90;99.90
25918;DHT22;13899;51.174;4.456;2023-03-26T12:10:38;13.20;99.90
25918;DHT22;13899;51.174;4.456;2023-03-26T12:15:56;13.50;99.90
25918;DHT22;13899;51.174;4.456;2023-03-26T12:18:25;14.00;99.90
25918;DHT22;13899;51.174;4.456;2023-03-26T12:29:08;13.00;99.90
25918;DHT22;13899;51.174;4.456;2023-03-26T12:31:57;13.30;99.90
25918;DHT22;13899;51.174;4.456;2023-03-26T12:34:32;13.40;99.90
25918;DHT22;13899;51.174;4.456;2023-03-26T12:37:03;12.90;99.90
25918;DHT22;13899;51.174;4.456;2023-03-26T12:39:40;13.40;99.90
25918;DHT22;13899;51.174;4.456;2023-03-26T12:42:25;13.60;99.90
25918;DHT22;13899;51.174;4.456;2023-03-26T12:44:52;13.20;99.90
25918;DHT22;13899;51.174;4.456;2023-03-26T12:47:28;12.60;99.90
25918;DHT22;13899;51.174;4.456;2023-03-26T12:49:55;12.50;99.90
25918;DHT22;13899;51.174;4.456;2023-03-26T13:06:39;13.00;99.90
25918;DHT22;13899;51.174;4.456;2023-03-26T13:12:18;12.80;99.90
25918;DHT22;13899;51.174;4.456;2023-03-26T13:20:30;12.80;99.90
25918;DHT22;13899;51.174;4.456;2023-03-26T13:23:22;13.00;99.90
25918;DHT22;13899;51.174;4.456;2023-03-26T13:51:17;12.80;99.90
25918;DHT22;13899;51.174;4.456;2023-03-26T13:53:57;12.50;99.90
25918;DHT22;13899;51.174;4.456;2023-03-26T13:56:39;12.20;99.90
25918;DHT22;13899;51.174;4.456;2023-03-26T13:59:22;12.90;99.90
25918;DHT22;13899;51.174;4.456;2023-03-26T14:01:56;13.60;99.90
25918;DHT22;13899;51.174;4.456;2023-03-26T14:04:45;14.00;99.90
25918;DHT22;13899;51.174;4.456;2023-03-26T14:07:25;14.50;99.90
25918;DHT22;13899;51.174;4.456;2023-03-26T14:15:01;14.10;99.90
25918;DHT22;13899;51.174;4.456;2023-03-26T14:17:45;13.40;99.90
25918;DHT22;13899;51.174;4.456;2023-03-26T14:28:52;12.80;99.90
25918;DHT22;13899;51.174;4.456;2023-03-26T14:34:38;12.10;99.90
25918;DHT22;13899;51.174;4.456;2023-03-26T14:40:00;12.60;99.90
25918;DHT22;13899;51.174;4.456;2023-03-26T14:51:07;11.70;99.90
25918;DHT22;13899;51.174;4.456;2023-03-26T14:53:47;11.50;99.90
25918;DHT22;13899;51.174;4.456;2023-03-26T15:13:18;10.80;99.90
25918;DHT22;13899;51.174;4.456;2023-03-26T15:42:21;10.90;99.90
25918;DHT22;13899;51.174;4.456;2023-03-26T15:44:52;11.00;99.90
25918;DHT22;13899;51.174;4.456;2023-03-26T15:47:32;11.20;99.90
25918;DHT22;13899;51.174;4.456;2023-03-26T15:53:19;10.70;99.90
25918;DHT22;13899;51.174;4.456;2023-03-26T16:29:09;10.60;99.90
25918;DHT22;13899;51.174;4.456;2023-03-26T16:37:35;10.70;99.90
25918;DHT22;13899;51.174;4.456;2023-03-26T16:43:05;10.80;99.90
25918;DHT22;13899;51.174;4.456;2023-03-26T16:45:43;11.20;99.90
25918;DHT22;13899;51.174;4.456;2023-03-26T16:51:21;10.70;99.90
25918;DHT22;13899;51.174;4.456;2023-03-26T16:53:52;10.70;99.90
25918;DHT22;13899;51.174;4.456;2023-03-26T16:58:50;11.00;99.90
25918;DHT22;13899;51.174;4.456;2023-03-26T17:01:32;10.80;99.90
25918;DHT22;13899;51.174;4.456;2023-03-26T17:09:16;10.70;99.90
25918;DHT22;13899;51.174;4.456;2023-03-26T17:14:35;10.40;99.90
25918;DHT22;13899;51.174;4.456;2023-03-26T17:17:27;10.40;99.90
25918;DHT22;13899;51.174;4.456;2023-03-26T17:22:56;10.50;99.90
25918;DHT22;13899;51.174;4.456;2023-03-26T17:33:34;10.10;99.90
25918;DHT22;13899;51.174;4.456;2023-03-26T17:41:01;9.90;99.90
25918;DHT22;13899;51.174;4.456;2023-03-26T17:43:51;10.00;99.90
25918;DHT22;13899;51.174;4.456;2023-03-26T17:54:53;10.20;99.90
25918;DHT22;13899;51.174;4.456;2023-03-26T17:57:37;10.30;99.90
25918;DHT22;13899;51.174;4.456;2023-03-26T18:00:06;10.10;99.90
25918;DHT22;13899;51.174;4.456;2023-03-26T18:02:36;9.90;99.90
25918;DHT22;13899;51.174;4.456;2023-03-26T18:05:12;9.80;99.90
25918;DHT22;13899;51.174;4.456;2023-03-26T18:07:53;9.70;99.90
25918;DHT22;13899;51.174;4.456;2023-03-26T18:16:21;9.20;99.90
25918;DHT22;13899;51.174;4.456;2023-03-26T18:19:01;9.20;99.90
25918;DHT22;13899;51.174;4.456;2023-03-26T18:21:39;9.20;99.90
25918;DHT22;13899;51.174;4.456;2023-03-26T18:24:06;9.10;99.90
25918;DHT22;13899;51.174;4.456;2023-03-26T18:26:57;9.40;99.90
25918;DHT22;13899;51.174;4.456;2023-03-26T18:29:31;9.20;99.90
25918;DHT22;13899;51.174;4.456;2023-03-26T18:31:57;9.00;99.90
25918;DHT22;13899;51.174;4.456;2023-03-26T18:34:27;9.30;99.90
25918;DHT22;13899;51.174;4.456;2023-03-26T18:37:14;9.10;99.90
25918;DHT22;13899;51.174;4.456;2023-03-26T18:40:27;8.80;99.90
25918;DHT22;13899;51.174;4.456;2023-03-26T18:42:35;9.20;99.90
25918;DHT22;13899;51.174;4.456;2023-03-26T18:45:15;9.00;99.90
25918;DHT22;13899;51.174;4.456;2023-03-26T18:47:45;8.90;99.90
25918;DHT22;13899;51.174;4.456;2023-03-26T18:50:15;9.10;99.90
25918;DHT22;13899;51.174;4.456;2023-03-26T18:52:43;8.80;99.90
25918;DHT22;13899;51.174;4.456;2023-03-26T18:55:12;8.70;99.90
25918;DHT22;13899;51.174;4.456;2023-03-26T18:57:38;8.60;99.90
25918;DHT22;13899;51.174;4.456;2023-03-26T19:00:20;8.60;99.90
25918;DHT22;13899;51.174;4.456;2023-03-26T19:02:50;8.70;99.90
25918;DHT22;13899;51.174;4.456;2023-03-26T19:05:21;8.70;99.90
25918;DHT22;13899;51.174;4.456;2023-03-26T19:07:48;8.50;99.90
25918;DHT22;13899;51.174;4.456;2023-03-26T19:10:16;8.60;99.90
25918;DHT22;13899;51.174;4.456;2023-03-26T19:12:56;8.60;99.90
25918;DHT22;13899;51.174;4.456;2023-03-26T19:15:24;8.50;99.90
25918;DHT22;13899;51.174;4.456;2023-03-26T19:17:54;8.60;99.90
25918;DHT22;13899;51.174;4.456;2023-03-26T19:20:35;8.80;99.90
25918;DHT22;13899;51.174;4.456;2023-03-26T19:23:02;8.60;99.90
25918;DHT22;13899;51.174;4.456;2023-03-26T19:26:03;8.60;99.90
25918;DHT22;13899;51.174;4.456;2023-03-26T19:28:52;8.70;99.90
25918;DHT22;13899;51.174;4.456;2023-03-26T19:31:37;8.60;99.90
25918;DHT22;13899;51.174;4.456;2023-03-26T19:37:02;8.50;99.90
25918;DHT22;13899;51.174;4.456;2023-03-26T19:39:52;8.80;99.90
25918;DHT22;13899;51.174;4.456;2023-03-26T19:42:25;8.50;99.90
25918;DHT22;13899;51.174;4.456;2023-03-26T19:44:54;8.30;99.90
25918;DHT22;13899;51.174;4.456;2023-03-26T19:47:23;8.20;99.90
25918;DHT22;13899;51.174;4.456;2023-03-26T19:49:51;8.00;99.90
25918;DHT22;13899;51.174;4.456;2023-03-26T19:57:26;8.00;99.90
25918;DHT22;13899;51.174;4.456;2023-03-26T19:59:53;8.10;99.90
25918;DHT22;13899;51.174;4.456;2023-03-26T20:02:20;8.00;99.90
25918;DHT22;13899;51.174;4.456;2023-03-26T20:04:46;8.00;99.90
25918;DHT22;13899;51.174;4.456;2023-03-26T20:07:16;8.00;99.90
25918;DHT22;13899;51.174;4.456;2023-03-26T20:09:42;7.80;99.90
25918;DHT22;13899;51.174;4.456;2023-03-26T20:12:10;7.80;99.90
25918;DHT22;13899;51.174;4.456;2023-03-26T20:14:36;8.10;99.90
25918;DHT22;13899;51.174;4.456;2023-03-26T20:17:03;8.30;99.90
25918;DHT22;13899;51.174;4.456;2023-03-26T20:19:30;8.20;99.90
25918;DHT22;13899;51.174;4.456;2023-03-26T20:21:56;8.10;99.90
25918;DHT22;13899;51.174;4.456;2023-03-26T20:24:23;7.90;99.90
25918;DHT22;13899;51.174;4.456;2023-03-26T20:26:49;7.80;99.90
25918;DHT22;13899;51.174;4.456;2023-03-26T20:29:15;8.00;99.90
25918;DHT22;13899;51.174;4.456;2023-03-26T20:31:41;7.80;99.90
25918;DHT22;13899;51.174;4.456;2023-03-26T20:34:16;7.80;99.90
25918;DHT22;13899;51.174;4.456;2023-03-26T20:36:42;8.10;99.90
25918;DHT22;13899;51.174;4.456;2023-03-26T20:39:08;8.00;99.90
25918;DHT22;13899;51.174;4.456;2023-03-26T20:41:34;8.00;99.90
25918;DHT22;13899;51.174;4.456;2023-03-26T20:44:12;7.90;99.90
25918;DHT22;13899;51.174;4.456;2023-03-26T20:46:39;8.00;99.90
25918;DHT22;13899;51.174;4.456;2023-03-26T20:49:05;8.00;99.90
25918;DHT22;13899;51.174;4.456;2023-03-26T20:51:31;7.90;99.90
25918;DHT22;13899;51.174;4.456;2023-03-26T20:53:57;7.70;99.90
25918;DHT22;13899;51.174;4.456;2023-03-26T20:56:22;7.70;99.90
25918;DHT22;13899;51.174;4.456;2023-03-26T20:58:48;7.90;99.90
25918;DHT22;13899;51.174;4.456;2023-03-26T21:01:14;7.80;99.90
25918;DHT22;13899;51.174;4.456;2023-03-26T21:03:42;7.80;99.90
25918;DHT22;13899;51.174;4.456;2023-03-26T21:06:09;8.00;99.90
25918;DHT22;13899;51.174;4.456;2023-03-26T21:08:39;7.90;99.90
25918;DHT22;13899;51.174;4.456;2023-03-26T21:14:19;8.00;99.90
25918;DHT22;13899;51.174;4.456;2023-03-26T21:16:46;7.90;99.90
25918;DHT22;13899;51.174;4.456;2023-03-26T21:19:12;7.90;99.90
25918;DHT22;13899;51.174;4.456;2023-03-26T21:21:50;8.20;99.90
25918;DHT22;13899;51.174;4.456;2023-03-26T21:27:14;8.60;99.90
25918;DHT22;13899;51.174;4.456;2023-03-26T21:29:42;8.20;99.90
25918;DHT22;13899;51.174;4.456;2023-03-26T21:32:10;8.10;99.90
25918;DHT22;13899;51.174;4.456;2023-03-26T21:34:37;8.20;99.90
25918;DHT22;13899;51.174;4.456;2023-03-26T21:37:04;7.90;99.90
25918;DHT22;13899;51.174;4.456;2023-03-26T21:39:31;7.70;99.90
25918;DHT22;13899;51.174;4.456;2023-03-26T21:41:57;7.70;99.90
25918;DHT22;13899;51.174;4.456;2023-03-26T21:44:23;7.90;99.90
25918;DHT22;13899;51.174;4.456;2023-03-26T21:46:49;8.00;99.90
25918;DHT22;13899;51.174;4.456;2023-03-26T21:49:16;7.80;99.90
25918;DHT22;13899;51.174;4.456;2023-03-26T21:51:43;7.60;99.90
25918;DHT22;13899;51.174;4.456;2023-03-26T21:54:30;7.30;99.90
25918;DHT22;13899;51.174;4.456;2023-03-26T21:57:04;7.40;99.90
25918;DHT22;13899;51.174;4.456;2023-03-26T22:08:28;7.10;99.90
25918;DHT22;13899;51.174;4.456;2023-03-26T22:10:54;6.90;99.90
25918;DHT22;13899;51.174;4.456;2023-03-26T22:13:20;6.80;99.90
25918;DHT22;13899;51.174;4.456;2023-03-26T22:15:46;7.10;99.90
25918;DHT22;13899;51.174;4.456;2023-03-26T22:18:11;7.30;99.90
25918;DHT22;13899;51.174;4.456;2023-03-26T22:20:38;7.40;99.90
25918;DHT22;13899;51.174;4.456;2023-03-26T22:23:07;7.40;99.90
25918;DHT22;13899;51.174;4.456;2023-03-26T22:25:34;7.30;99.90
25918;DHT22;13899;51.174;4.456;2023-03-26T22:28:00;7.00;99.90
25918;DHT22;13899;51.174;4.456;2023-03-26T22:30:26;7.00;99.90
25918;DHT22;13899;51.174;4.456;2023-03-26T22:32:52;7.20;99.90
25918;DHT22;13899;51.174;4.456;2023-03-26T22:35:18;7.20;99.90
25918;DHT22;13899;51.174;4.456;2023-03-26T22:37:44;7.00;99.90
25918;DHT22;13899;51.174;4.456;2023-03-26T22:40:10;7.10;99.90
25918;DHT22;13899;51.174;4.456;2023-03-26T22:42:39;7.30;99.90
25918;DHT22;13899;51.174;4.456;2023-03-26T22:45:05;7.40;99.90
25918;DHT22;13899;51.174;4.456;2023-03-26T22:47:31;7.60;99.90
25918;DHT22;13899;51.174;4.456;2023-03-26T22:50:00;7.60;99.90
25918;DHT22;13899;51.174;4.456;2023-03-26T22:52:27;7.60;99.90
25918;DHT22;13899;51.174;4.456;2023-03-26T22:54:53;7.50;99.90
25918;DHT22;13899;51.174;4.456;2023-03-26T22:57:19;7.40;99.90
25918;DHT22;13899;51.174;4.456;2023-03-26T22:59:46;7.30;99.90
25918;DHT22;13899;51.174;4.456;2023-03-26T23:02:11;7.50;99.90
25918;DHT22;13899;51.174;4.456;2023-03-26T23:04:37;7.80;99.90
25918;DHT22;13899;51.174;4.456;2023-03-26T23:07:04;7.90;99.90
25918;DHT22;13899;51.174;4.456;2023-03-26T23:09:30;8.00;99.90
25918;DHT22;13899;51.174;4.456;2023-03-26T23:11:56;8.10;99.90
25918;DHT22;13899;51.174;4.456;2023-03-26T23:14:21;8.00;99.90
25918;DHT22;13899;51.174;4.456;2023-03-26T23:16:47;7.60;99.90
25918;DHT22;13899;51.174;4.456;2023-03-26T23:19:14;7.70;99.90
25918;DHT22;13899;51.174;4.456;2023-03-26T23:21:40;7.80;99.90
25918;DHT22;13899;51.174;4.456;2023-03-26T23:24:07;7.90;99.90
25918;DHT22;13899;51.174;4.456;2023-03-26T23:26:33;8.10;99.90
25918;DHT22;13899;51.174;4.456;2023-03-26T23:29:00;8.00;99.90
25918;DHT22;13899;51.174;4.456;2023-03-26T23:31:25;8.10;99.90
25918;DHT22;13899;51.174;4.456;2023-03-26T23:33:51;8.20;99.90
25918;DHT22;13899;51.174;4.456;2023-03-26T23:36:19;8.00;99.90
25918;DHT22;13899;51.174;4.456;2023-03-26T23:38:46;8.10;99.90
25918;DHT22;13899;51.174;4.456;2023-03-26T23:41:13;8.30;99.90
25918;DHT22;13899;51.174;4.456;2023-03-26T23:43:40;8.40;99.90
25918;DHT22;13899;51.174;4.456;2023-03-26T23:46:07;8.40;99.90
25918;DHT22;13899;51.174;4.456;2023-03-26T23:48:36;8.50;99.90
25918;DHT22;13899;51.174;4.456;2023-03-26T23:51:02;8.70;99.90
25918;DHT22;13899;51.174;4.456;2023-03-26T23:53:30;8.50;99.90
25918;DHT22;13899;51.174;4.456;2023-03-26T23:55:56;8.20;99.90
25918;DHT22;13899;51.174;4.456;2023-03-26T23:58:27;8.00;99.90
